sensor_id;sensor_type;location;lat;lon;timestamp;P1;durP1;ratioP1;P2;durP2;ratioP2
4980;SDS011;2507;50.392;7.482;2023-07-09T00:01:58;9.13;;;8.20;;
4980;SDS011;2507;50.392;7.482;2023-07-09T00:04:23;9.93;;;8.63;;
4980;SDS011;2507;50.392;7.482;2023-07-09T00:06:49;11.83;;;8.10;;
4980;SDS011;2507;50.392;7.482;2023-07-09T00:09:16;9.30;;;7.73;;
4980;SDS011;2507;50.392;7.482;2023-07-09T00:11:43;10.50;;;8.07;;
4980;SDS011;2507;50.392;7.482;2023-07-09T00:14:13;7.60;;;6.90;;
4980;SDS011;2507;50.392;7.482;2023-07-09T00:16:39;8.20;;;7.40;;
4980;SDS011;2507;50.392;7.482;2023-07-09T00:19:10;17.43;;;7.67;;
4980;SDS011;2507;50.392;7.482;2023-07-09T00:21:38;8.37;;;7.53;;
4980;SDS011;2507;50.392;7.482;2023-07-09T00:24:05;9.57;;;6.80;;
4980;SDS011;2507;50.392;7.482;2023-07-09T00:26:31;8.53;;;6.60;;
4980;SDS011;2507;50.392;7.482;2023-07-09T00:28:57;8.40;;;7.27;;
4980;SDS011;2507;50.392;7.482;2023-07-09T00:31:23;8.77;;;7.87;;
4980;SDS011;2507;50.392;7.482;2023-07-09T00:33:49;13.73;;;7.97;;
4980;SDS011;2507;50.392;7.482;2023-07-09T00:36:15;11.07;;;8.70;;
4980;SDS011;2507;50.392;7.482;2023-07-09T00:38:51;9.70;;;8.20;;
4980;SDS011;2507;50.392;7.482;2023-07-09T00:41:21;8.00;;;7.23;;
4980;SDS011;2507;50.392;7.482;2023-07-09T00:43:48;8.70;;;7.90;;
4980;SDS011;2507;50.392;7.482;2023-07-09T00:48:50;7.60;;;6.90;;
4980;SDS011;2507;50.392;7.482;2023-07-09T00:51:26;10.77;;;9.63;;
4980;SDS011;2507;50.392;7.482;2023-07-09T00:53:54;12.27;;;11.00;;
4980;SDS011;2507;50.392;7.482;2023-07-09T00:56:27;12.50;;;10.87;;
4980;SDS011;2507;50.392;7.482;2023-07-09T00:58:56;12.60;;;11.10;;
4980;SDS011;2507;50.392;7.482;2023-07-09T01:01:26;15.30;;;11.53;;
4980;SDS011;2507;50.392;7.482;2023-07-09T01:03:53;12.43;;;9.10;;
4980;SDS011;2507;50.392;7.482;2023-07-09T01:06:27;11.70;;;10.50;;
4980;SDS011;2507;50.392;7.482;2023-07-09T01:09:13;12.43;;;10.50;;
4980;SDS011;2507;50.392;7.482;2023-07-09T01:11:39;10.23;;;9.10;;
4980;SDS011;2507;50.392;7.482;2023-07-09T01:14:06;11.83;;;8.63;;
4980;SDS011;2507;50.392;7.482;2023-07-09T01:16:35;11.03;;;9.83;;
4980;SDS011;2507;50.392;7.482;2023-07-09T01:19:03;11.63;;;9.43;;
4980;SDS011;2507;50.392;7.482;2023-07-09T01:21:29;15.80;;;9.67;;
4980;SDS011;2507;50.392;7.482;2023-07-09T01:23:57;10.57;;;9.50;;
4980;SDS011;2507;50.392;7.482;2023-07-09T01:26:25;12.07;;;10.40;;
4980;SDS011;2507;50.392;7.482;2023-07-09T01:28:52;11.80;;;10.23;;
4980;SDS011;2507;50.392;7.482;2023-07-09T01:31:19;11.50;;;10.07;;
4980;SDS011;2507;50.392;7.482;2023-07-09T01:33:45;10.27;;;9.20;;
4980;SDS011;2507;50.392;7.482;2023-07-09T01:36:12;12.27;;;10.83;;
4980;SDS011;2507;50.392;7.482;2023-07-09T01:38:48;11.90;;;10.67;;
4980;SDS011;2507;50.392;7.482;2023-07-09T01:41:14;13.43;;;11.30;;
4980;SDS011;2507;50.392;7.482;2023-07-09T01:43:41;15.63;;;12.37;;
4980;SDS011;2507;50.392;7.482;2023-07-09T01:46:08;13.13;;;11.60;;
4980;SDS011;2507;50.392;7.482;2023-07-09T01:48:35;13.30;;;11.90;;
4980;SDS011;2507;50.392;7.482;2023-07-09T01:51:06;15.93;;;11.93;;
4980;SDS011;2507;50.392;7.482;2023-07-09T01:53:34;13.70;;;11.37;;
4980;SDS011;2507;50.392;7.482;2023-07-09T01:56:01;12.73;;;11.43;;
4980;SDS011;2507;50.392;7.482;2023-07-09T01:58:27;16.13;;;12.20;;
4980;SDS011;2507;50.392;7.482;2023-07-09T02:00:56;14.87;;;13.27;;
4980;SDS011;2507;50.392;7.482;2023-07-09T02:03:22;14.37;;;12.90;;
4980;SDS011;2507;50.392;7.482;2023-07-09T02:05:49;13.00;;;11.80;;
4980;SDS011;2507;50.392;7.482;2023-07-09T02:08:17;13.63;;;12.23;;
4980;SDS011;2507;50.392;7.482;2023-07-09T02:10:43;13.87;;;12.40;;
4980;SDS011;2507;50.392;7.482;2023-07-09T02:13:09;14.13;;;11.60;;
4980;SDS011;2507;50.392;7.482;2023-07-09T02:15:35;12.80;;;11.50;;
4980;SDS011;2507;50.392;7.482;2023-07-09T02:18:01;15.03;;;11.40;;
4980;SDS011;2507;50.392;7.482;2023-07-09T02:20:26;14.73;;;12.40;;
4980;SDS011;2507;50.392;7.482;2023-07-09T02:22:52;12.70;;;11.40;;
4980;SDS011;2507;50.392;7.482;2023-07-09T02:25:17;12.77;;;11.40;;
4980;SDS011;2507;50.392;7.482;2023-07-09T02:27:42;10.63;;;9.47;;
4980;SDS011;2507;50.392;7.482;2023-07-09T02:30:08;11.10;;;10.00;;
4980;SDS011;2507;50.392;7.482;2023-07-09T02:32:33;10.83;;;9.77;;
4980;SDS011;2507;50.392;7.482;2023-07-09T02:34:59;11.10;;;10.00;;
4980;SDS011;2507;50.392;7.482;2023-07-09T02:37:24;10.63;;;9.63;;
4980;SDS011;2507;50.392;7.482;2023-07-09T02:39:51;12.57;;;10.70;;
4980;SDS011;2507;50.392;7.482;2023-07-09T02:42:17;15.90;;;11.37;;
4980;SDS011;2507;50.392;7.482;2023-07-09T02:44:44;13.13;;;11.87;;
4980;SDS011;2507;50.392;7.482;2023-07-09T02:47:10;18.10;;;15.33;;
4980;SDS011;2507;50.392;7.482;2023-07-09T02:49:36;18.20;;;13.10;;
4980;SDS011;2507;50.392;7.482;2023-07-09T02:52:01;17.77;;;13.70;;
4980;SDS011;2507;50.392;7.482;2023-07-09T02:54:27;16.10;;;12.03;;
4980;SDS011;2507;50.392;7.482;2023-07-09T02:56:53;16.80;;;12.73;;
4980;SDS011;2507;50.392;7.482;2023-07-09T02:59:18;11.57;;;10.37;;
4980;SDS011;2507;50.392;7.482;2023-07-09T03:01:43;13.40;;;12.17;;
4980;SDS011;2507;50.392;7.482;2023-07-09T03:04:09;16.50;;;11.57;;
4980;SDS011;2507;50.392;7.482;2023-07-09T03:06:35;14.13;;;11.50;;
4980;SDS011;2507;50.392;7.482;2023-07-09T03:09:01;16.43;;;11.13;;
4980;SDS011;2507;50.392;7.482;2023-07-09T03:11:29;12.63;;;11.23;;
4980;SDS011;2507;50.392;7.482;2023-07-09T03:13:56;17.30;;;10.37;;
4980;SDS011;2507;50.392;7.482;2023-07-09T03:16:22;15.50;;;10.93;;
4980;SDS011;2507;50.392;7.482;2023-07-09T03:18:47;12.10;;;10.70;;
4980;SDS011;2507;50.392;7.482;2023-07-09T03:21:12;12.53;;;10.57;;
4980;SDS011;2507;50.392;7.482;2023-07-09T03:23:37;16.27;;;11.97;;
4980;SDS011;2507;50.392;7.482;2023-07-09T03:26:03;12.77;;;11.43;;
4980;SDS011;2507;50.392;7.482;2023-07-09T03:28:30;15.20;;;11.80;;
4980;SDS011;2507;50.392;7.482;2023-07-09T03:30:56;11.43;;;10.33;;
4980;SDS011;2507;50.392;7.482;2023-07-09T03:33:22;13.97;;;11.27;;
4980;SDS011;2507;50.392;7.482;2023-07-09T03:35:48;13.87;;;10.93;;
4980;SDS011;2507;50.392;7.482;2023-07-09T03:38:13;14.40;;;10.67;;
4980;SDS011;2507;50.392;7.482;2023-07-09T03:40:38;14.37;;;10.77;;
4980;SDS011;2507;50.392;7.482;2023-07-09T03:43:04;12.00;;;10.00;;
4980;SDS011;2507;50.392;7.482;2023-07-09T03:45:30;13.80;;;9.87;;
4980;SDS011;2507;50.392;7.482;2023-07-09T03:47:57;10.27;;;9.30;;
4980;SDS011;2507;50.392;7.482;2023-07-09T03:50:22;11.30;;;10.20;;
4980;SDS011;2507;50.392;7.482;2023-07-09T03:52:47;13.17;;;10.77;;
4980;SDS011;2507;50.392;7.482;2023-07-09T03:55:13;9.70;;;8.70;;
4980;SDS011;2507;50.392;7.482;2023-07-09T03:57:39;11.70;;;9.67;;
4980;SDS011;2507;50.392;7.482;2023-07-09T04:00:04;14.10;;;10.63;;
4980;SDS011;2507;50.392;7.482;2023-07-09T04:02:30;11.07;;;9.97;;
4980;SDS011;2507;50.392;7.482;2023-07-09T04:04:56;12.20;;;9.83;;
4980;SDS011;2507;50.392;7.482;2023-07-09T04:07:21;10.23;;;9.23;;
4980;SDS011;2507;50.392;7.482;2023-07-09T04:09:48;11.53;;;10.33;;
4980;SDS011;2507;50.392;7.482;2023-07-09T04:12:13;13.17;;;10.37;;
4980;SDS011;2507;50.392;7.482;2023-07-09T04:14:38;10.67;;;8.80;;
4980;SDS011;2507;50.392;7.482;2023-07-09T04:17:05;9.80;;;8.80;;
4980;SDS011;2507;50.392;7.482;2023-07-09T04:19:31;11.00;;;9.13;;
4980;SDS011;2507;50.392;7.482;2023-07-09T04:21:56;10.50;;;9.37;;
4980;SDS011;2507;50.392;7.482;2023-07-09T04:24:21;10.77;;;9.50;;
4980;SDS011;2507;50.392;7.482;2023-07-09T04:26:47;9.73;;;8.77;;
4980;SDS011;2507;50.392;7.482;2023-07-09T04:29:12;10.40;;;9.40;;
4980;SDS011;2507;50.392;7.482;2023-07-09T04:31:38;10.73;;;9.10;;
4980;SDS011;2507;50.392;7.482;2023-07-09T04:34:03;9.87;;;8.90;;
4980;SDS011;2507;50.392;7.482;2023-07-09T04:36:29;9.83;;;8.83;;
4980;SDS011;2507;50.392;7.482;2023-07-09T04:38:55;10.10;;;8.70;;
4980;SDS011;2507;50.392;7.482;2023-07-09T04:41:20;9.00;;;8.17;;
4980;SDS011;2507;50.392;7.482;2023-07-09T04:43:45;10.90;;;8.60;;
4980;SDS011;2507;50.392;7.482;2023-07-09T04:46:11;8.80;;;8.00;;
4980;SDS011;2507;50.392;7.482;2023-07-09T04:48:36;11.97;;;9.33;;
4980;SDS011;2507;50.392;7.482;2023-07-09T04:51:01;10.80;;;8.37;;
4980;SDS011;2507;50.392;7.482;2023-07-09T04:53:27;9.07;;;7.73;;
4980;SDS011;2507;50.392;7.482;2023-07-09T04:55:52;10.83;;;8.27;;
4980;SDS011;2507;50.392;7.482;2023-07-09T04:58:18;9.47;;;8.00;;
4980;SDS011;2507;50.392;7.482;2023-07-09T05:00:44;7.90;;;7.20;;
4980;SDS011;2507;50.392;7.482;2023-07-09T05:03:10;8.03;;;6.90;;
4980;SDS011;2507;50.392;7.482;2023-07-09T05:05:41;9.63;;;7.20;;
4980;SDS011;2507;50.392;7.482;2023-07-09T05:08:07;8.80;;;6.87;;
4980;SDS011;2507;50.392;7.482;2023-07-09T05:10:32;7.97;;;7.27;;
4980;SDS011;2507;50.392;7.482;2023-07-09T05:12:58;8.13;;;7.37;;
4980;SDS011;2507;50.392;7.482;2023-07-09T05:15:23;8.33;;;6.90;;
4980;SDS011;2507;50.392;7.482;2023-07-09T05:17:48;8.87;;;6.73;;
4980;SDS011;2507;50.392;7.482;2023-07-09T05:20:14;10.23;;;6.87;;
4980;SDS011;2507;50.392;7.482;2023-07-09T05:22:40;9.43;;;6.20;;
4980;SDS011;2507;50.392;7.482;2023-07-09T05:25:06;7.23;;;6.43;;
4980;SDS011;2507;50.392;7.482;2023-07-09T05:27:31;8.53;;;6.70;;
4980;SDS011;2507;50.392;7.482;2023-07-09T05:29:56;7.23;;;6.60;;
4980;SDS011;2507;50.392;7.482;2023-07-09T05:32:23;7.50;;;6.67;;
4980;SDS011;2507;50.392;7.482;2023-07-09T05:34:48;7.50;;;6.07;;
4980;SDS011;2507;50.392;7.482;2023-07-09T05:37:13;5.70;;;5.20;;
4980;SDS011;2507;50.392;7.482;2023-07-09T05:39:38;6.13;;;5.53;;
4980;SDS011;2507;50.392;7.482;2023-07-09T05:42:04;8.73;;;6.03;;
4980;SDS011;2507;50.392;7.482;2023-07-09T05:44:29;7.70;;;5.47;;
4980;SDS011;2507;50.392;7.482;2023-07-09T05:46:55;6.40;;;5.80;;
4980;SDS011;2507;50.392;7.482;2023-07-09T05:49:20;7.17;;;5.50;;
4980;SDS011;2507;50.392;7.482;2023-07-09T05:51:45;8.50;;;5.60;;
4980;SDS011;2507;50.392;7.482;2023-07-09T05:54:10;5.57;;;4.90;;
4980;SDS011;2507;50.392;7.482;2023-07-09T05:56:36;5.90;;;5.20;;
4980;SDS011;2507;50.392;7.482;2023-07-09T05:59:01;5.17;;;4.87;;
4980;SDS011;2507;50.392;7.482;2023-07-09T06:01:27;7.70;;;6.57;;
4980;SDS011;2507;50.392;7.482;2023-07-09T06:03:52;8.90;;;5.80;;
4980;SDS011;2507;50.392;7.482;2023-07-09T06:06:19;5.70;;;5.20;;
4980;SDS011;2507;50.392;7.482;2023-07-09T06:08:44;10.53;;;5.70;;
4980;SDS011;2507;50.392;7.482;2023-07-09T06:11:09;6.53;;;5.87;;
4980;SDS011;2507;50.392;7.482;2023-07-09T06:13:35;9.33;;;5.20;;
4980;SDS011;2507;50.392;7.482;2023-07-09T06:16:00;6.50;;;5.13;;
4980;SDS011;2507;50.392;7.482;2023-07-09T06:18:26;6.10;;;5.50;;
4980;SDS011;2507;50.392;7.482;2023-07-09T06:20:55;5.77;;;5.27;;
4980;SDS011;2507;50.392;7.482;2023-07-09T06:23:22;5.33;;;4.93;;
4980;SDS011;2507;50.392;7.482;2023-07-09T06:25:47;5.53;;;5.03;;
4980;SDS011;2507;50.392;7.482;2023-07-09T06:28:17;5.90;;;5.37;;
4980;SDS011;2507;50.392;7.482;2023-07-09T06:30:44;7.30;;;4.57;;
4980;SDS011;2507;50.392;7.482;2023-07-09T06:33:10;9.60;;;5.27;;
4980;SDS011;2507;50.392;7.482;2023-07-09T06:35:37;5.33;;;4.87;;
4980;SDS011;2507;50.392;7.482;2023-07-09T06:38:04;5.87;;;5.10;;
4980;SDS011;2507;50.392;7.482;2023-07-09T06:40:29;5.33;;;4.93;;
4980;SDS011;2507;50.392;7.482;2023-07-09T06:42:55;9.90;;;4.70;;
4980;SDS011;2507;50.392;7.482;2023-07-09T06:45:20;5.22;;;4.72;;
4980;SDS011;2507;50.392;7.482;2023-07-09T06:47:46;4.77;;;3.83;;
4980;SDS011;2507;50.392;7.482;2023-07-09T06:50:11;5.53;;;5.03;;
4980;SDS011;2507;50.392;7.482;2023-07-09T06:52:37;5.95;;;5.32;;
4980;SDS011;2507;50.392;7.482;2023-07-09T06:55:02;6.38;;;4.75;;
4980;SDS011;2507;50.392;7.482;2023-07-09T06:57:28;4.75;;;4.30;;
4980;SDS011;2507;50.392;7.482;2023-07-09T06:59:53;4.50;;;4.10;;
4980;SDS011;2507;50.392;7.482;2023-07-09T07:02:19;5.53;;;3.60;;
4980;SDS011;2507;50.392;7.482;2023-07-09T07:04:44;8.60;;;4.43;;
4980;SDS011;2507;50.392;7.482;2023-07-09T07:07:09;7.65;;;4.13;;
4980;SDS011;2507;50.392;7.482;2023-07-09T07:09:35;4.68;;;4.15;;
4980;SDS011;2507;50.392;7.482;2023-07-09T07:12:00;3.88;;;3.67;;
4980;SDS011;2507;50.392;7.482;2023-07-09T07:14:25;4.82;;;4.10;;
4980;SDS011;2507;50.392;7.482;2023-07-09T07:16:50;3.55;;;3.35;;
4980;SDS011;2507;50.392;7.482;2023-07-09T07:19:16;5.80;;;3.63;;
4980;SDS011;2507;50.392;7.482;2023-07-09T07:21:41;3.85;;;3.50;;
4980;SDS011;2507;50.392;7.482;2023-07-09T07:24:06;4.35;;;3.75;;
4980;SDS011;2507;50.392;7.482;2023-07-09T07:26:32;3.53;;;3.22;;
4980;SDS011;2507;50.392;7.482;2023-07-09T07:28:57;3.75;;;3.55;;
4980;SDS011;2507;50.392;7.482;2023-07-09T07:31:22;4.82;;;3.58;;
4980;SDS011;2507;50.392;7.482;2023-07-09T07:33:48;3.60;;;3.30;;
4980;SDS011;2507;50.392;7.482;2023-07-09T07:36:13;4.47;;;3.50;;
4980;SDS011;2507;50.392;7.482;2023-07-09T07:38:38;4.10;;;3.65;;
4980;SDS011;2507;50.392;7.482;2023-07-09T07:41:03;4.22;;;3.28;;
4980;SDS011;2507;50.392;7.482;2023-07-09T07:43:29;4.72;;;3.72;;
4980;SDS011;2507;50.392;7.482;2023-07-09T07:45:54;3.45;;;3.22;;
4980;SDS011;2507;50.392;7.482;2023-07-09T07:48:19;4.03;;;3.45;;
4980;SDS011;2507;50.392;7.482;2023-07-09T07:50:45;4.05;;;3.47;;
4980;SDS011;2507;50.392;7.482;2023-07-09T07:53:12;3.53;;;3.25;;
4980;SDS011;2507;50.392;7.482;2023-07-09T07:55:39;6.78;;;3.45;;
4980;SDS011;2507;50.392;7.482;2023-07-09T07:58:05;3.75;;;2.72;;
4980;SDS011;2507;50.392;7.482;2023-07-09T08:00:31;3.78;;;2.90;;
4980;SDS011;2507;50.392;7.482;2023-07-09T08:02:56;4.65;;;3.05;;
4980;SDS011;2507;50.392;7.482;2023-07-09T08:05:21;3.60;;;3.40;;
4980;SDS011;2507;50.392;7.482;2023-07-09T08:07:48;3.40;;;3.10;;
4980;SDS011;2507;50.392;7.482;2023-07-09T08:10:13;4.20;;;3.80;;
4980;SDS011;2507;50.392;7.482;2023-07-09T08:12:40;3.38;;;3.08;;
4980;SDS011;2507;50.392;7.482;2023-07-09T08:15:05;3.45;;;3.15;;
4980;SDS011;2507;50.392;7.482;2023-07-09T08:17:31;2.97;;;2.85;;
4980;SDS011;2507;50.392;7.482;2023-07-09T08:19:57;3.13;;;2.92;;
4980;SDS011;2507;50.392;7.482;2023-07-09T08:22:22;3.30;;;2.80;;
4980;SDS011;2507;50.392;7.482;2023-07-09T08:24:50;3.72;;;3.38;;
4980;SDS011;2507;50.392;7.482;2023-07-09T08:27:16;3.92;;;3.50;;
4980;SDS011;2507;50.392;7.482;2023-07-09T08:29:42;8.30;;;4.05;;
4980;SDS011;2507;50.392;7.482;2023-07-09T08:32:08;3.50;;;3.30;;
4980;SDS011;2507;50.392;7.482;2023-07-09T08:34:34;3.88;;;3.63;;
4980;SDS011;2507;50.392;7.482;2023-07-09T08:36:59;3.17;;;2.97;;
4980;SDS011;2507;50.392;7.482;2023-07-09T08:39:25;3.67;;;3.38;;
4980;SDS011;2507;50.392;7.482;2023-07-09T08:50:13;3.88;;;3.50;;
4980;SDS011;2507;50.392;7.482;2023-07-09T08:52:42;3.75;;;3.50;;
4980;SDS011;2507;50.392;7.482;2023-07-09T08:57:40;3.33;;;3.17;;
4980;SDS011;2507;50.392;7.482;2023-07-09T09:00:15;3.50;;;3.20;;
4980;SDS011;2507;50.392;7.482;2023-07-09T09:02:54;3.72;;;3.50;;
4980;SDS011;2507;50.392;7.482;2023-07-09T09:05:25;3.45;;;3.15;;
4980;SDS011;2507;50.392;7.482;2023-07-09T09:07:51;3.95;;;3.65;;
4980;SDS011;2507;50.392;7.482;2023-07-09T09:10:29;3.95;;;3.33;;
4980;SDS011;2507;50.392;7.482;2023-07-09T09:13:14;3.90;;;3.58;;
4980;SDS011;2507;50.392;7.482;2023-07-09T09:15:42;4.15;;;3.85;;
4980;SDS011;2507;50.392;7.482;2023-07-09T09:23:39;4.57;;;3.83;;
4980;SDS011;2507;50.392;7.482;2023-07-09T09:26:17;6.82;;;4.60;;
4980;SDS011;2507;50.392;7.482;2023-07-09T09:28:46;4.47;;;4.13;;
4980;SDS011;2507;50.392;7.482;2023-07-09T09:31:12;4.75;;;3.80;;
4980;SDS011;2507;50.392;7.482;2023-07-09T09:33:41;4.65;;;4.30;;
4980;SDS011;2507;50.392;7.482;2023-07-09T09:36:19;5.17;;;4.67;;
4980;SDS011;2507;50.392;7.482;2023-07-09T09:38:46;4.43;;;4.10;;
4980;SDS011;2507;50.392;7.482;2023-07-09T09:41:14;4.50;;;3.90;;
4980;SDS011;2507;50.392;7.482;2023-07-09T09:43:42;5.07;;;4.67;;
4980;SDS011;2507;50.392;7.482;2023-07-09T09:46:09;7.83;;;4.50;;
4980;SDS011;2507;50.392;7.482;2023-07-09T09:48:34;4.50;;;4.20;;
4980;SDS011;2507;50.392;7.482;2023-07-09T09:51:03;5.97;;;4.80;;
4980;SDS011;2507;50.392;7.482;2023-07-09T09:53:30;5.20;;;4.70;;
4980;SDS011;2507;50.392;7.482;2023-07-09T09:56:05;4.73;;;4.40;;
4980;SDS011;2507;50.392;7.482;2023-07-09T09:58:39;5.90;;;4.20;;
4980;SDS011;2507;50.392;7.482;2023-07-09T10:01:05;7.03;;;4.37;;
4980;SDS011;2507;50.392;7.482;2023-07-09T10:03:32;7.30;;;3.80;;
4980;SDS011;2507;50.392;7.482;2023-07-09T10:05:59;6.10;;;4.50;;
4980;SDS011;2507;50.392;7.482;2023-07-09T10:11:47;4.70;;;4.03;;
4980;SDS011;2507;50.392;7.482;2023-07-09T10:14:41;6.13;;;4.00;;
4980;SDS011;2507;50.392;7.482;2023-07-09T10:36:48;9.43;;;4.13;;
4980;SDS011;2507;50.392;7.482;2023-07-09T10:39:17;4.10;;;3.70;;
4980;SDS011;2507;50.392;7.482;2023-07-09T10:41:48;7.17;;;3.90;;
4980;SDS011;2507;50.392;7.482;2023-07-09T10:44:20;5.80;;;3.83;;
4980;SDS011;2507;50.392;7.482;2023-07-09T10:46:58;5.03;;;4.00;;
4980;SDS011;2507;50.392;7.482;2023-07-09T10:49:33;6.10;;;3.77;;
4980;SDS011;2507;50.392;7.482;2023-07-09T10:52:04;4.97;;;3.60;;
4980;SDS011;2507;50.392;7.482;2023-07-09T10:54:41;4.20;;;3.73;;
4980;SDS011;2507;50.392;7.482;2023-07-09T10:57:19;4.53;;;3.90;;
4980;SDS011;2507;50.392;7.482;2023-07-09T10:59:50;5.60;;;3.73;;
4980;SDS011;2507;50.392;7.482;2023-07-09T11:04:48;4.90;;;4.07;;
4980;SDS011;2507;50.392;7.482;2023-07-09T11:07:18;4.60;;;4.20;;
4980;SDS011;2507;50.392;7.482;2023-07-09T11:09:49;4.90;;;4.00;;
4980;SDS011;2507;50.392;7.482;2023-07-09T11:12:22;4.93;;;4.00;;
4980;SDS011;2507;50.392;7.482;2023-07-09T11:15:04;4.30;;;3.90;;
4980;SDS011;2507;50.392;7.482;2023-07-09T11:17:34;5.10;;;3.73;;
4980;SDS011;2507;50.392;7.482;2023-07-09T11:20:06;5.10;;;3.70;;
4980;SDS011;2507;50.392;7.482;2023-07-09T11:22:41;5.80;;;4.20;;
4980;SDS011;2507;50.392;7.482;2023-07-09T11:28:01;3.93;;;3.63;;
4980;SDS011;2507;50.392;7.482;2023-07-09T11:30:31;5.90;;;3.33;;
4980;SDS011;2507;50.392;7.482;2023-07-09T11:33:04;8.70;;;4.47;;
4980;SDS011;2507;50.392;7.482;2023-07-09T11:35:42;4.53;;;4.23;;
4980;SDS011;2507;50.392;7.482;2023-07-09T11:38:24;4.40;;;3.83;;
4980;SDS011;2507;50.392;7.482;2023-07-09T11:40:50;4.53;;;4.13;;
4980;SDS011;2507;50.392;7.482;2023-07-09T11:43:33;4.70;;;4.30;;
4980;SDS011;2507;50.392;7.482;2023-07-09T11:46:06;3.90;;;3.70;;
4980;SDS011;2507;50.392;7.482;2023-07-09T11:48:37;5.47;;;3.60;;
4980;SDS011;2507;50.392;7.482;2023-07-09T11:51:07;4.43;;;3.40;;
4980;SDS011;2507;50.392;7.482;2023-07-09T11:53:44;3.57;;;3.37;;
4980;SDS011;2507;50.392;7.482;2023-07-09T11:56:14;8.15;;;3.53;;
4980;SDS011;2507;50.392;7.482;2023-07-09T11:58:50;3.90;;;3.50;;
4980;SDS011;2507;50.392;7.482;2023-07-09T12:01:23;3.30;;;3.10;;
4980;SDS011;2507;50.392;7.482;2023-07-09T12:03:52;4.07;;;3.63;;
4980;SDS011;2507;50.392;7.482;2023-07-09T12:06:22;5.32;;;3.20;;
4980;SDS011;2507;50.392;7.482;2023-07-09T12:08:51;6.22;;;3.50;;
4980;SDS011;2507;50.392;7.482;2023-07-09T12:11:33;3.80;;;3.45;;
4980;SDS011;2507;50.392;7.482;2023-07-09T12:14:03;4.22;;;3.78;;
4980;SDS011;2507;50.392;7.482;2023-07-09T12:16:38;3.85;;;3.55;;
4980;SDS011;2507;50.392;7.482;2023-07-09T12:19:05;3.72;;;3.47;;
4980;SDS011;2507;50.392;7.482;2023-07-09T12:21:33;4.00;;;3.28;;
4980;SDS011;2507;50.392;7.482;2023-07-09T12:24:01;4.57;;;4.15;;
4980;SDS011;2507;50.392;7.482;2023-07-09T12:26:30;4.45;;;3.42;;
4980;SDS011;2507;50.392;7.482;2023-07-09T12:28:57;4.82;;;3.60;;
4980;SDS011;2507;50.392;7.482;2023-07-09T12:31:27;5.72;;;3.30;;
4980;SDS011;2507;50.392;7.482;2023-07-09T12:33:55;6.93;;;3.60;;
4980;SDS011;2507;50.392;7.482;2023-07-09T12:36:23;5.80;;;4.00;;
4980;SDS011;2507;50.392;7.482;2023-07-09T12:38:50;4.55;;;3.20;;
4980;SDS011;2507;50.392;7.482;2023-07-09T12:41:24;3.70;;;3.50;;
4980;SDS011;2507;50.392;7.482;2023-07-09T12:43:54;5.75;;;3.50;;
4980;SDS011;2507;50.392;7.482;2023-07-09T12:46:21;3.42;;;3.13;;
4980;SDS011;2507;50.392;7.482;2023-07-09T12:48:47;3.80;;;3.50;;
4980;SDS011;2507;50.392;7.482;2023-07-09T12:51:16;3.97;;;3.58;;
4980;SDS011;2507;50.392;7.482;2023-07-09T12:53:46;4.45;;;3.97;;
4980;SDS011;2507;50.392;7.482;2023-07-09T12:56:12;4.43;;;3.20;;
4980;SDS011;2507;50.392;7.482;2023-07-09T12:58:39;5.97;;;3.90;;
4980;SDS011;2507;50.392;7.482;2023-07-09T13:01:05;3.75;;;3.47;;
4980;SDS011;2507;50.392;7.482;2023-07-09T13:03:33;4.10;;;3.55;;
4980;SDS011;2507;50.392;7.482;2023-07-09T13:05:59;4.50;;;3.50;;
4980;SDS011;2507;50.392;7.482;2023-07-09T13:08:29;4.43;;;3.35;;
4980;SDS011;2507;50.392;7.482;2023-07-09T13:10:56;4.80;;;3.60;;
4980;SDS011;2507;50.392;7.482;2023-07-09T13:13:22;4.22;;;3.47;;
4980;SDS011;2507;50.392;7.482;2023-07-09T13:16:00;5.13;;;3.50;;
4980;SDS011;2507;50.392;7.482;2023-07-09T13:18:27;13.73;;;3.63;;
4980;SDS011;2507;50.392;7.482;2023-07-09T13:20:53;4.23;;;3.30;;
4980;SDS011;2507;50.392;7.482;2023-07-09T13:23:24;3.97;;;3.67;;
4980;SDS011;2507;50.392;7.482;2023-07-09T13:25:51;7.32;;;3.60;;
4980;SDS011;2507;50.392;7.482;2023-07-09T13:28:28;3.50;;;3.35;;
4980;SDS011;2507;50.392;7.482;2023-07-09T13:31:00;5.70;;;3.60;;
4980;SDS011;2507;50.392;7.482;2023-07-09T13:33:32;4.60;;;3.33;;
4980;SDS011;2507;50.392;7.482;2023-07-09T13:35:57;3.80;;;3.30;;
4980;SDS011;2507;50.392;7.482;2023-07-09T13:38:23;4.50;;;3.63;;
4980;SDS011;2507;50.392;7.482;2023-07-09T13:40:50;4.78;;;3.20;;
4980;SDS011;2507;50.392;7.482;2023-07-09T13:43:29;10.20;;;3.13;;
4980;SDS011;2507;50.392;7.482;2023-07-09T13:45:57;3.25;;;2.95;;
4980;SDS011;2507;50.392;7.482;2023-07-09T13:48:22;3.90;;;3.20;;
4980;SDS011;2507;50.392;7.482;2023-07-09T13:50:50;3.22;;;2.92;;
4980;SDS011;2507;50.392;7.482;2023-07-09T13:53:18;5.88;;;2.97;;
4980;SDS011;2507;50.392;7.482;2023-07-09T13:55:45;8.65;;;4.07;;
4980;SDS011;2507;50.392;7.482;2023-07-09T13:58:12;3.40;;;3.10;;
4980;SDS011;2507;50.392;7.482;2023-07-09T14:00:41;3.20;;;2.78;;
4980;SDS011;2507;50.392;7.482;2023-07-09T14:03:10;3.35;;;3.10;;
4980;SDS011;2507;50.392;7.482;2023-07-09T14:05:39;3.78;;;3.47;;
4980;SDS011;2507;50.392;7.482;2023-07-09T14:08:06;5.05;;;3.20;;
4980;SDS011;2507;50.392;7.482;2023-07-09T14:10:32;3.38;;;3.17;;
4980;SDS011;2507;50.392;7.482;2023-07-09T14:12:58;3.13;;;2.92;;
4980;SDS011;2507;50.392;7.482;2023-07-09T14:15:23;2.80;;;2.63;;
4980;SDS011;2507;50.392;7.482;2023-07-09T14:17:49;4.45;;;2.75;;
4980;SDS011;2507;50.392;7.482;2023-07-09T14:20:15;4.30;;;3.03;;
4980;SDS011;2507;50.392;7.482;2023-07-09T14:22:42;3.70;;;3.40;;
4980;SDS011;2507;50.392;7.482;2023-07-09T14:25:09;3.63;;;3.25;;
4980;SDS011;2507;50.392;7.482;2023-07-09T14:27:40;3.95;;;3.65;;
4980;SDS011;2507;50.392;7.482;2023-07-09T14:30:06;6.25;;;4.35;;
4980;SDS011;2507;50.392;7.482;2023-07-09T14:32:35;4.60;;;3.67;;
4980;SDS011;2507;50.392;7.482;2023-07-09T14:35:09;4.00;;;3.58;;
4980;SDS011;2507;50.392;7.482;2023-07-09T14:37:53;5.82;;;3.95;;
4980;SDS011;2507;50.392;7.482;2023-07-09T14:40:20;3.78;;;3.38;;
4980;SDS011;2507;50.392;7.482;2023-07-09T14:42:47;7.15;;;3.67;;
4980;SDS011;2507;50.392;7.482;2023-07-09T14:45:23;3.80;;;3.50;;
4980;SDS011;2507;50.392;7.482;2023-07-09T14:47:50;5.80;;;3.92;;
4980;SDS011;2507;50.392;7.482;2023-07-09T14:50:17;4.05;;;3.63;;
4980;SDS011;2507;50.392;7.482;2023-07-09T14:52:43;3.90;;;3.60;;
4980;SDS011;2507;50.392;7.482;2023-07-09T14:55:13;5.32;;;3.88;;
4980;SDS011;2507;50.392;7.482;2023-07-09T14:57:41;3.88;;;3.67;;
4980;SDS011;2507;50.392;7.482;2023-07-09T15:00:06;4.53;;;3.67;;
4980;SDS011;2507;50.392;7.482;2023-07-09T15:02:37;3.60;;;3.30;;
4980;SDS011;2507;50.392;7.482;2023-07-09T15:05:09;6.10;;;3.88;;
4980;SDS011;2507;50.392;7.482;2023-07-09T15:07:38;4.80;;;4.40;;
4980;SDS011;2507;50.392;7.482;2023-07-09T15:10:03;96.97;;;7.57;;
4980;SDS011;2507;50.392;7.482;2023-07-09T15:12:32;62.90;;;6.40;;
4980;SDS011;2507;50.392;7.482;2023-07-09T15:15:22;73.27;;;8.43;;
4980;SDS011;2507;50.392;7.482;2023-07-09T15:17:53;57.77;;;6.10;;
4980;SDS011;2507;50.392;7.482;2023-07-09T15:20:23;57.57;;;7.80;;
4980;SDS011;2507;50.392;7.482;2023-07-09T15:22:50;30.87;;;5.87;;
4980;SDS011;2507;50.392;7.482;2023-07-09T15:25:20;22.57;;;4.70;;
4980;SDS011;2507;50.392;7.482;2023-07-09T15:27:47;9.10;;;4.17;;
4980;SDS011;2507;50.392;7.482;2023-07-09T15:30:20;14.23;;;6.50;;
4980;SDS011;2507;50.392;7.482;2023-07-09T15:32:47;10.50;;;6.33;;
4980;SDS011;2507;50.392;7.482;2023-07-09T15:35:14;15.90;;;7.00;;
4980;SDS011;2507;50.392;7.482;2023-07-09T15:37:41;19.00;;;6.87;;
4980;SDS011;2507;50.392;7.482;2023-07-09T15:40:16;11.90;;;5.80;;
4980;SDS011;2507;50.392;7.482;2023-07-09T15:42:44;17.47;;;7.27;;
4980;SDS011;2507;50.392;7.482;2023-07-09T15:45:13;16.80;;;7.87;;
4980;SDS011;2507;50.392;7.482;2023-07-09T15:47:40;15.27;;;8.83;;
4980;SDS011;2507;50.392;7.482;2023-07-09T15:50:19;23.43;;;12.03;;
4980;SDS011;2507;50.392;7.482;2023-07-09T15:52:48;25.60;;;12.40;;
4980;SDS011;2507;50.392;7.482;2023-07-09T15:55:24;13.10;;;8.27;;
4980;SDS011;2507;50.392;7.482;2023-07-09T15:57:51;19.43;;;9.80;;
4980;SDS011;2507;50.392;7.482;2023-07-09T16:00:20;30.97;;;15.60;;